createdAt,value
2022-08-28T00:00:52.739Z,31.83
2022-08-28T00:01:55.126Z,32.30
2022-08-28T00:02:57.312Z,32.93
2022-08-28T00:04:00.386Z,31.17
2022-08-28T00:05:02.155Z,30.80
2022-08-28T00:06:04.144Z,29.70
2022-08-28T00:07:06.000Z,28.17
2022-08-28T00:08:10.702Z,28.13
2022-08-28T00:09:12.536Z,26.80
2022-08-28T00:10:16.788Z,26.30
2022-08-28T00:11:19.620Z,27.70
2022-08-28T00:12:21.687Z,27.03
2022-08-28T00:13:25.480Z,28.70
2022-08-28T00:14:27.270Z,29.53
2022-08-28T00:15:32.531Z,27.70
2022-08-28T00:16:34.484Z,28.47
2022-08-28T00:17:36.514Z,31.53
2022-08-28T00:18:39.434Z,34.40
2022-08-28T00:19:41.167Z,35.50
2022-08-28T00:20:43.307Z,37.83
2022-08-28T00:21:45.653Z,34.80
2022-08-28T00:22:48.654Z,33.83
2022-08-28T00:23:50.400Z,33.50
2022-08-28T00:24:52.010Z,36.13
2022-08-28T00:25:57.225Z,33.43
2022-08-28T00:27:17.477Z,39.27
2022-08-28T00:28:23.735Z,33.77
2022-08-28T00:29:26.124Z,36.87
2022-08-28T00:30:40.362Z,35.13
2022-08-28T00:31:41.904Z,33.87
2022-08-28T00:32:43.451Z,32.80
2022-08-28T00:33:46.126Z,34.03
2022-08-28T00:34:51.832Z,36.57
2022-08-28T00:35:54.972Z,33.70
2022-08-28T00:36:56.808Z,35.00
2022-08-28T00:37:58.538Z,31.77
2022-08-28T00:39:00.773Z,33.77
2022-08-28T00:40:02.615Z,30.53
2022-08-28T00:41:05.384Z,30.50
2022-08-28T00:42:07.038Z,31.77
2022-08-28T00:43:09.818Z,34.30
2022-08-28T00:44:13.700Z,37.23
2022-08-28T00:45:18.125Z,36.77
2022-08-28T00:46:22.905Z,33.80
2022-08-28T00:47:26.455Z,36.93
2022-08-28T00:48:28.416Z,36.07
2022-08-28T00:49:33.691Z,36.03
2022-08-28T00:50:54.558Z,37.60
2022-08-28T00:52:05.811Z,36.43
2022-08-28T00:53:07.387Z,35.83
2022-08-28T00:54:09.801Z,34.27
2022-08-28T00:55:15.784Z,32.80
2022-08-28T00:56:19.041Z,32.13
2022-08-28T00:57:49.299Z,32.80
2022-08-28T00:58:52.503Z,31.50
2022-08-28T00:59:54.316Z,32.30
2022-08-28T01:00:56.040Z,33.57
2022-08-28T01:01:58.994Z,33.90
2022-08-28T01:03:05.103Z,31.93
2022-08-28T01:04:07.799Z,33.80
2022-08-28T01:05:09.983Z,31.50
2022-08-28T01:06:14.571Z,32.77
2022-08-28T01:07:17.194Z,35.67
2022-08-28T01:08:18.929Z,36.07
2022-08-28T01:09:22.069Z,36.83
2022-08-28T01:10:25.893Z,36.07
2022-08-28T01:11:29.332Z,35.70
2022-08-28T01:12:33.276Z,38.37
2022-08-28T01:13:36.726Z,36.67
2022-08-28T01:14:41.555Z,34.57
2022-08-28T01:15:43.468Z,38.20
2022-08-28T01:16:46.206Z,35.17
2022-08-28T01:17:51.905Z,35.20
2022-08-28T01:18:57.744Z,34.70
2022-08-28T01:20:09.176Z,34.30
2022-08-28T01:21:20.515Z,34.70
2022-08-28T01:22:38.914Z,32.77
2022-08-28T01:23:58.070Z,34.60
2022-08-28T01:25:03.308Z,37.40
2022-08-28T01:26:05.448Z,36.70
2022-08-28T01:27:12.883Z,37.10
2022-08-28T01:28:15.470Z,35.00
2022-08-28T01:29:17.706Z,36.50
2022-08-28T01:30:21.596Z,35.67
2022-08-28T01:31:23.254Z,35.87
2022-08-28T01:32:32.091Z,33.20
2022-08-28T01:33:33.894Z,31.80
2022-08-28T01:34:35.765Z,33.07
2022-08-28T01:35:42.499Z,33.37
2022-08-28T01:36:44.327Z,34.40
2022-08-28T01:37:47.298Z,32.87
2022-08-28T01:38:55.537Z,33.53
2022-08-28T01:39:57.437Z,33.33
2022-08-28T01:40:59.378Z,32.70
2022-08-28T01:42:02.494Z,36.57
2022-08-28T01:43:17.030Z,32.83
2022-08-28T01:44:24.359Z,33.70
2022-08-28T01:45:26.270Z,39.23
2022-08-28T01:46:31.636Z,43.43
2022-08-28T01:47:33.431Z,41.70
2022-08-28T01:48:38.526Z,39.83
2022-08-28T01:49:40.342Z,39.33
2022-08-28T01:50:43.075Z,40.40
2022-08-28T01:51:44.951Z,39.97
2022-08-28T01:52:46.510Z,39.30
2022-08-28T01:53:48.200Z,40.43
2022-08-28T01:54:50.235Z,41.97
2022-08-28T01:55:56.012Z,42.57
2022-08-28T01:56:58.007Z,38.20
2022-08-28T01:57:59.681Z,41.37
2022-08-28T01:59:04.550Z,38.70
2022-08-28T02:00:06.822Z,36.73
2022-08-28T02:01:18.402Z,36.53
2022-08-28T02:02:21.322Z,35.03
2022-08-28T02:03:23.597Z,33.83
2022-08-28T02:04:27.561Z,33.80
2022-08-28T02:05:34.349Z,35.03
2022-08-28T02:06:36.537Z,34.77
2022-08-28T02:07:38.444Z,34.90
2022-08-28T02:08:40.391Z,34.13
2022-08-28T02:09:41.933Z,34.70
2022-08-28T02:10:43.881Z,34.50
2022-08-28T02:11:46.786Z,35.00
2022-08-28T02:12:49.284Z,35.13
2022-08-28T02:13:52.815Z,34.67
2022-08-28T02:14:56.001Z,34.10
2022-08-28T02:15:57.863Z,36.13
2022-08-28T02:16:59.482Z,33.10
2022-08-28T02:18:01.964Z,36.20
2022-08-28T02:19:03.696Z,31.70
2022-08-28T02:20:06.664Z,30.40
2022-08-28T02:21:09.872Z,30.93
2022-08-28T02:22:13.396Z,30.30
2022-08-28T02:23:14.995Z,31.33
2022-08-28T02:24:17.108Z,33.07
2022-08-28T02:25:18.954Z,33.20
2022-08-28T02:26:23.658Z,29.87
2022-08-28T02:27:25.521Z,30.33
2022-08-28T02:28:27.182Z,31.57
2022-08-28T02:29:28.811Z,32.60
2022-08-28T02:30:30.301Z,31.23
2022-08-28T02:31:32.492Z,32.77
2022-08-28T02:32:34.071Z,32.43
2022-08-28T02:33:38.390Z,33.70
2022-08-28T02:34:42.068Z,34.00
2022-08-28T02:35:43.779Z,35.00
2022-08-28T02:36:45.322Z,32.03
2022-08-28T02:37:47.859Z,35.00
2022-08-28T02:38:55.353Z,32.70
2022-08-28T02:39:59.828Z,33.60
2022-08-28T02:41:01.357Z,34.30
2022-08-28T02:42:06.636Z,32.53
2022-08-28T02:43:08.472Z,32.57
2022-08-28T02:44:10.099Z,33.53
2022-08-28T02:45:13.809Z,34.40
2022-08-28T02:46:16.558Z,35.47
2022-08-28T02:47:18.753Z,35.43
2022-08-28T02:48:20.391Z,35.60
2022-08-28T02:49:23.850Z,35.30
2022-08-28T02:50:25.343Z,35.20
2022-08-28T02:51:30.890Z,34.23
2022-08-28T02:52:32.374Z,32.30
2022-08-28T02:53:35.068Z,32.27
2022-08-28T02:54:39.668Z,33.50
2022-08-28T02:55:41.739Z,35.17
2022-08-28T02:56:43.351Z,36.30
2022-08-28T02:57:45.623Z,33.83
2022-08-28T02:58:47.740Z,33.13
2022-08-28T02:59:49.252Z,34.40
2022-08-28T03:00:51.176Z,34.63
2022-08-28T03:01:52.900Z,33.60
2022-08-28T03:02:54.988Z,35.07
2022-08-28T03:03:56.560Z,33.47
2022-08-28T03:05:00.420Z,33.90
2022-08-28T03:06:02.755Z,34.60
2022-08-28T03:07:07.309Z,32.47
2022-08-28T03:08:08.898Z,32.43
2022-08-28T03:09:10.478Z,31.17
2022-08-28T03:10:12.352Z,32.47
2022-08-28T03:11:13.899Z,31.43
2022-08-28T03:12:16.963Z,33.60
2022-08-28T03:13:26.424Z,30.67
2022-08-28T03:14:29.032Z,30.30
2022-08-28T03:15:30.646Z,29.93
2022-08-28T03:16:32.645Z,32.80
2022-08-28T03:17:36.523Z,30.80
2022-08-28T03:18:38.136Z,30.43
2022-08-28T03:19:39.946Z,31.07
2022-08-28T03:20:42.356Z,30.60
2022-08-28T03:21:44.124Z,32.80
2022-08-28T03:23:04.284Z,33.23
2022-08-28T03:24:05.862Z,33.47
2022-08-28T03:25:07.752Z,36.03
2022-08-28T03:26:15.636Z,32.60
2022-08-28T03:27:17.216Z,31.70
2022-08-28T03:28:18.917Z,32.67
2022-08-28T03:29:20.670Z,31.77
2022-08-28T03:30:23.392Z,28.63
2022-08-28T03:31:27.475Z,31.07
2022-08-28T03:32:29.526Z,31.53
2022-08-28T03:33:31.488Z,30.37
2022-08-28T03:34:33.562Z,30.47
2022-08-28T03:35:35.226Z,32.83
2022-08-28T03:36:36.785Z,31.07
2022-08-28T03:37:38.405Z,31.33
2022-08-28T03:38:41.651Z,31.57
2022-08-28T03:39:43.168Z,30.80
2022-08-28T03:40:46.511Z,30.50
2022-08-28T03:41:47.977Z,32.40
2022-08-28T03:42:53.561Z,32.47
2022-08-28T03:44:00.538Z,33.87
2022-08-28T03:45:02.373Z,30.77
2022-08-28T03:46:05.969Z,31.20
2022-08-28T03:47:08.846Z,31.37
2022-08-28T03:48:10.351Z,31.67
2022-08-28T03:49:11.866Z,31.23
2022-08-28T03:50:14.190Z,32.73
2022-08-28T03:51:29.118Z,36.00
2022-08-28T03:52:31.532Z,38.57
2022-08-28T03:53:33.172Z,41.30
2022-08-28T03:54:35.010Z,44.63
2022-08-28T03:55:36.688Z,46.43
2022-08-28T03:56:41.170Z,48.07
2022-08-28T03:57:42.686Z,46.20
2022-08-28T03:58:44.525Z,44.23
2022-08-28T03:59:48.145Z,42.97
2022-08-28T04:00:51.086Z,41.90
2022-08-28T04:01:52.676Z,44.27
2022-08-28T04:02:54.367Z,39.00
2022-08-28T04:03:56.802Z,40.10
2022-08-28T04:04:58.304Z,42.97
2022-08-28T04:06:00.775Z,42.93
2022-08-28T04:07:02.317Z,41.20
2022-08-28T04:08:04.161Z,40.90
2022-08-28T04:09:06.247Z,37.50
2022-08-28T04:10:08.484Z,39.83
2022-08-28T04:11:10.112Z,36.33
2022-08-28T04:12:11.985Z,40.00
2022-08-28T04:13:15.373Z,41.53
2022-08-28T04:14:16.844Z,40.40
2022-08-28T04:15:18.426Z,38.57
2022-08-28T04:16:20.004Z,40.87
2022-08-28T04:17:21.531Z,38.67
2022-08-28T04:18:23.100Z,37.03
2022-08-28T04:19:26.594Z,36.63
2022-08-28T04:20:28.794Z,38.50
2022-08-28T04:21:31.511Z,37.27
2022-08-28T04:22:33.225Z,39.20
2022-08-28T04:23:36.695Z,37.67
2022-08-28T04:24:38.400Z,39.43
2022-08-28T04:25:40.923Z,40.37
2022-08-28T04:26:42.590Z,38.80
2022-08-28T04:27:44.342Z,38.23
2022-08-28T04:28:46.936Z,38.30
2022-08-28T04:29:49.156Z,35.63
2022-08-28T04:30:55.097Z,39.13
2022-08-28T04:31:58.173Z,34.57
2022-08-28T04:33:00.069Z,34.90
2022-08-28T04:34:03.676Z,35.07
2022-08-28T04:35:07.247Z,32.40
2022-08-28T04:36:11.654Z,35.10
2022-08-28T04:37:13.187Z,31.37
2022-08-28T04:38:15.146Z,32.97
2022-08-28T04:39:17.042Z,32.53
2022-08-28T04:40:19.219Z,33.67
2022-08-28T04:41:20.785Z,35.10
2022-08-28T04:42:22.700Z,32.63
2022-08-28T04:43:24.247Z,33.27
2022-08-28T04:44:26.229Z,34.03
2022-08-28T04:45:29.487Z,34.90
2022-08-28T04:46:32.251Z,36.50
2022-08-28T04:47:38.395Z,32.63
2022-08-28T04:48:41.240Z,33.07
2022-08-28T04:49:44.208Z,32.23
2022-08-28T04:50:48.669Z,35.73
2022-08-28T04:51:50.164Z,33.80
2022-08-28T04:52:52.513Z,33.23
2022-08-28T04:53:54.004Z,32.57
2022-08-28T04:54:55.794Z,34.07
2022-08-28T04:55:58.994Z,33.00
2022-08-28T04:57:01.236Z,30.13
2022-08-28T04:58:02.717Z,31.73
2022-08-28T04:59:04.261Z,33.80
2022-08-28T05:00:07.508Z,35.83
2022-08-28T05:01:19.115Z,31.13
2022-08-28T05:02:20.829Z,32.17
2022-08-28T05:03:23.691Z,36.23
2022-08-28T05:04:26.857Z,33.87
2022-08-28T05:05:28.377Z,32.90
2022-08-28T05:06:32.036Z,33.10
2022-08-28T05:07:34.392Z,35.93
2022-08-28T05:08:36.460Z,34.43
2022-08-28T05:09:38.070Z,33.93
2022-08-28T05:10:40.592Z,32.43
2022-08-28T05:11:42.712Z,32.60
2022-08-28T05:12:44.248Z,32.40
2022-08-28T05:13:46.014Z,30.97
2022-08-28T05:14:48.922Z,30.13
2022-08-28T05:15:52.172Z,32.30
2022-08-28T05:16:55.397Z,28.10
2022-08-28T05:17:56.961Z,30.03
2022-08-28T05:19:02.126Z,30.77
2022-08-28T05:20:05.573Z,29.03
2022-08-28T05:21:15.670Z,32.10
2022-08-28T05:22:17.169Z,28.80
2022-08-28T05:23:18.682Z,28.47
2022-08-28T05:24:23.778Z,29.03
2022-08-28T05:25:25.257Z,28.90
2022-08-28T05:26:29.730Z,28.23
2022-08-28T05:27:31.646Z,27.80
2022-08-28T05:28:33.185Z,29.67
2022-08-28T05:29:35.060Z,28.03
2022-08-28T05:30:38.498Z,26.97
2022-08-28T05:31:41.144Z,29.10
2022-08-28T05:32:43.238Z,29.23
2022-08-28T05:33:47.314Z,28.80
2022-08-28T05:34:48.851Z,28.27
2022-08-28T05:35:50.369Z,28.73
2022-08-28T05:36:51.902Z,25.63
2022-08-28T05:37:53.898Z,26.60
2022-08-28T05:38:57.676Z,27.60
2022-08-28T05:40:00.168Z,26.90
2022-08-28T05:41:03.289Z,26.93
2022-08-28T05:42:05.552Z,26.30
2022-08-28T05:43:07.073Z,27.10
2022-08-28T05:44:11.361Z,26.27
2022-08-28T05:45:13.385Z,26.33
2022-08-28T05:46:16.144Z,26.10
2022-08-28T05:47:18.306Z,27.10
2022-08-28T05:48:23.400Z,25.10
2022-08-28T05:49:25.026Z,25.90
2022-08-28T05:50:26.702Z,27.10
2022-08-28T05:51:28.861Z,25.80
2022-08-28T05:52:30.392Z,26.50
2022-08-28T05:53:32.328Z,23.03
2022-08-28T05:54:34.060Z,25.10
2022-08-28T05:55:40.160Z,24.93
2022-08-28T05:56:43.827Z,26.60
2022-08-28T05:57:45.381Z,24.07
2022-08-28T05:58:46.964Z,24.77
2022-08-28T05:59:49.651Z,24.43
2022-08-28T06:00:51.228Z,26.80
2022-08-28T06:01:52.861Z,25.10
2022-08-28T06:02:54.361Z,25.67
2022-08-28T06:03:59.347Z,23.90
2022-08-28T06:05:01.583Z,24.43
2022-08-28T06:06:04.048Z,22.17
2022-08-28T06:07:06.065Z,24.20
2022-08-28T06:08:08.166Z,23.60
2022-08-28T06:09:14.201Z,21.67
2022-08-28T06:10:15.759Z,23.90
2022-08-28T06:11:21.705Z,22.87
2022-08-28T06:12:26.657Z,21.70
2022-08-28T06:13:30.067Z,22.70
2022-08-28T06:14:32.500Z,20.70
2022-08-28T06:15:34.113Z,21.80
2022-08-28T06:16:39.263Z,22.27
2022-08-28T06:17:40.856Z,20.47
2022-08-28T06:18:42.411Z,22.27
2022-08-28T06:19:43.941Z,19.60
2022-08-28T06:20:47.154Z,21.50
2022-08-28T06:21:52.320Z,19.90
2022-08-28T06:22:53.863Z,21.07
2022-08-28T06:23:56.060Z,20.80
2022-08-28T06:24:57.620Z,19.30
2022-08-28T06:25:59.786Z,20.53
2022-08-28T06:27:01.349Z,19.90
2022-08-28T06:28:03.644Z,19.10
2022-08-28T06:29:08.000Z,20.20
2022-08-28T06:30:10.278Z,18.90
2022-08-28T06:31:23.330Z,19.47
2022-08-28T06:32:26.740Z,19.90
2022-08-28T06:33:28.299Z,19.87
2022-08-28T06:34:30.472Z,19.27
2022-08-28T06:35:32.532Z,19.00
2022-08-28T06:36:37.331Z,19.50
2022-08-28T06:37:38.889Z,17.47
2022-08-28T06:38:40.448Z,19.77
2022-08-28T06:39:41.963Z,18.80
2022-08-28T06:40:46.745Z,17.93
2022-08-28T06:41:48.295Z,18.20
2022-08-28T06:42:49.858Z,19.53
2022-08-28T06:43:51.376Z,19.30
2022-08-28T06:44:52.886Z,18.23
2022-08-28T06:45:58.424Z,19.57
2022-08-28T06:47:00.321Z,18.10
2022-08-28T06:48:02.385Z,18.00
2022-08-28T06:49:06.204Z,19.27
2022-08-28T06:50:08.146Z,20.47
2022-08-28T06:51:11.959Z,18.27
2022-08-28T06:52:13.497Z,16.87
2022-08-28T06:53:18.808Z,17.47
2022-08-28T06:54:23.233Z,15.53
2022-08-28T06:55:25.295Z,14.80
2022-08-28T06:56:27.223Z,15.40
2022-08-28T06:57:28.839Z,14.20
2022-08-28T06:58:31.084Z,15.73
2022-08-28T06:59:33.096Z,13.93
2022-08-28T07:00:36.094Z,13.77
2022-08-28T07:01:38.359Z,14.90
2022-08-28T07:02:40.013Z,15.47
2022-08-28T07:03:42.699Z,13.50
2022-08-28T07:04:45.672Z,12.60
2022-08-28T07:05:47.156Z,12.90
2022-08-28T07:06:54.159Z,13.17
2022-08-28T07:07:56.585Z,13.80
2022-08-28T07:08:58.165Z,12.60
2022-08-28T07:09:59.633Z,13.13
2022-08-28T07:11:19.013Z,12.40
2022-08-28T07:12:20.569Z,13.73
2022-08-28T07:13:23.262Z,13.20
2022-08-28T07:14:26.072Z,12.53
2022-08-28T07:15:28.436Z,12.90
2022-08-28T07:16:38.137Z,12.70
2022-08-28T07:17:39.926Z,13.20
2022-08-28T07:18:43.026Z,11.87
2022-08-28T07:19:44.609Z,12.60
2022-08-28T07:20:55.406Z,12.10
2022-08-28T07:21:56.927Z,11.23
2022-08-28T07:22:59.745Z,10.87
2022-08-28T07:24:03.484Z,9.67
2022-08-28T07:25:05.466Z,11.67
2022-08-28T07:26:10.016Z,11.00
2022-08-28T07:27:14.723Z,10.80
2022-08-28T07:28:19.994Z,9.53
2022-08-28T07:29:22.465Z,11.40
2022-08-28T07:30:24.001Z,12.03
2022-08-28T07:31:27.564Z,10.20
2022-08-28T07:32:29.506Z,12.90
2022-08-28T07:33:32.421Z,11.57
2022-08-28T07:34:39.122Z,12.00
2022-08-28T07:35:45.101Z,12.50
2022-08-28T07:36:47.427Z,11.53
2022-08-28T07:37:49.144Z,12.10
2022-08-28T07:38:50.801Z,11.93
2022-08-28T07:39:52.765Z,11.00
2022-08-28T07:40:55.389Z,10.70
2022-08-28T07:41:56.860Z,10.50
2022-08-28T07:43:17.614Z,11.00
2022-08-28T07:44:37.880Z,10.77
2022-08-28T07:45:39.490Z,11.53
2022-08-28T07:46:41.864Z,11.23
2022-08-28T07:47:43.438Z,11.50
2022-08-28T07:48:47.172Z,12.80
2022-08-28T07:49:48.727Z,12.30
2022-08-28T07:50:50.255Z,12.50
2022-08-28T07:51:54.168Z,11.20
2022-08-28T07:52:56.037Z,12.57
2022-08-28T07:53:57.919Z,13.23
2022-08-28T07:55:01.070Z,11.60
2022-08-28T07:56:03.137Z,12.00
2022-08-28T07:57:06.938Z,11.40
2022-08-28T07:58:08.691Z,10.70
2022-08-28T07:59:11.522Z,11.87
2022-08-28T08:00:15.616Z,12.00
2022-08-28T08:01:20.241Z,11.10
2022-08-28T08:02:22.090Z,11.50
2022-08-28T08:03:24.912Z,11.50
2022-08-28T08:04:26.654Z,10.27
2022-08-28T08:05:28.218Z,10.73
2022-08-28T08:06:34.235Z,10.83
2022-08-28T08:07:39.755Z,11.40
2022-08-28T08:08:45.281Z,11.97
2022-08-28T08:09:46.826Z,10.43
2022-08-28T08:11:07.446Z,11.70
2022-08-28T08:12:14.610Z,10.73
2022-08-28T08:13:16.128Z,10.77
2022-08-28T08:14:17.810Z,10.60
2022-08-28T08:15:19.405Z,11.73
2022-08-28T08:16:24.150Z,9.23
2022-08-28T08:17:25.775Z,10.70
2022-08-28T08:18:27.292Z,10.00
2022-08-28T08:19:32.267Z,10.30
2022-08-28T08:20:33.837Z,9.63
2022-08-28T08:21:36.634Z,10.10
2022-08-28T08:22:38.188Z,9.23
2022-08-28T08:23:41.552Z,9.93
2022-08-28T08:24:43.157Z,9.30
2022-08-28T08:25:55.691Z,9.47
2022-08-28T08:27:00.859Z,10.37
2022-08-28T08:28:05.923Z,8.63
2022-08-28T08:29:07.512Z,8.07
2022-08-28T08:30:10.026Z,8.97
2022-08-28T08:31:20.766Z,9.87
2022-08-28T08:32:22.319Z,8.40
2022-08-28T08:33:23.842Z,8.30
2022-08-28T08:34:25.813Z,8.90
2022-08-28T08:35:27.620Z,9.43
2022-08-28T08:36:34.055Z,9.60
2022-08-28T08:37:35.600Z,9.03
2022-08-28T08:38:37.960Z,8.60
2022-08-28T08:39:41.654Z,9.00
2022-08-28T08:40:43.312Z,8.37
2022-08-28T08:41:51.716Z,9.00
2022-08-28T08:42:56.995Z,8.80
2022-08-28T08:44:06.190Z,8.87
2022-08-28T08:45:13.872Z,8.70
2022-08-28T08:46:15.678Z,9.20
2022-08-28T08:47:38.898Z,8.50
2022-08-28T08:48:44.917Z,8.30
2022-08-28T08:49:54.972Z,8.70
2022-08-28T08:51:05.358Z,8.43
2022-08-28T08:52:29.089Z,8.27
2022-08-28T08:53:47.860Z,8.63
2022-08-28T08:55:37.517Z,8.73
2022-08-28T08:56:41.372Z,9.13
2022-08-28T08:57:46.134Z,9.40
2022-08-28T08:58:54.406Z,9.67
2022-08-28T08:59:56.076Z,9.17
2022-08-28T09:01:20.186Z,8.00
2022-08-28T09:02:31.373Z,8.63
2022-08-28T09:04:24.779Z,9.30
2022-08-28T09:05:55.774Z,9.87
2022-08-28T09:07:07.966Z,8.90
2022-08-28T09:08:18.617Z,8.80
2022-08-28T09:09:35.340Z,8.20
2022-08-28T09:10:48.268Z,9.20
2022-08-28T09:12:03.666Z,9.40
2022-08-28T09:13:32.160Z,9.30
2022-08-28T09:14:52.488Z,8.70
2022-08-28T09:15:54.270Z,9.93
2022-08-28T09:16:56.593Z,9.57
2022-08-28T09:18:27.212Z,9.60
2022-08-28T09:19:29.660Z,10.57
2022-08-28T09:20:33.173Z,10.70
2022-08-28T09:21:41.340Z,10.83
2022-08-28T09:22:47.035Z,9.57
2022-08-28T09:23:48.616Z,9.67
2022-08-28T09:24:51.610Z,10.50
2022-08-28T09:25:59.715Z,11.00
2022-08-28T09:27:04.029Z,10.50
2022-08-28T09:28:08.453Z,10.10
2022-08-28T09:29:18.202Z,10.43
2022-08-28T09:30:31.408Z,10.20
2022-08-28T09:31:38.760Z,10.33
2022-08-28T09:32:57.863Z,11.70
2022-08-28T09:34:17.208Z,10.17
2022-08-28T09:35:27.877Z,10.30
2022-08-28T09:36:34.725Z,10.10
2022-08-28T09:37:37.184Z,9.60
2022-08-28T09:38:41.406Z,9.50
2022-08-28T09:39:45.629Z,8.93
2022-08-28T09:41:16.767Z,10.20
2022-08-28T09:42:41.439Z,10.03
2022-08-28T09:43:45.608Z,9.60
2022-08-28T09:45:09.119Z,9.23
2022-08-28T09:46:32.539Z,9.50
2022-08-28T09:47:34.068Z,9.70
2022-08-28T09:48:39.839Z,9.33
2022-08-28T09:49:41.362Z,9.90
2022-08-28T09:50:43.438Z,8.63
2022-08-28T09:51:45.092Z,8.80
2022-08-28T09:52:47.291Z,9.00
2022-08-28T09:53:51.807Z,8.20
2022-08-28T09:54:54.427Z,9.20
2022-08-28T09:55:59.075Z,8.53
2022-08-28T09:57:03.336Z,8.57
2022-08-28T09:58:06.070Z,7.37
2022-08-28T09:59:10.606Z,8.40
2022-08-28T10:00:12.813Z,7.90
2022-08-28T10:01:34.287Z,7.17
2022-08-28T10:02:43.093Z,7.00
2022-08-28T10:04:00.061Z,7.13
2022-08-28T10:05:10.392Z,7.23
2022-08-28T10:06:20.974Z,7.40
2022-08-28T10:07:50.967Z,6.90
2022-08-28T10:09:08.064Z,7.27
2022-08-28T10:10:31.772Z,6.57
2022-08-28T10:11:55.656Z,6.93
2022-08-28T10:13:14.313Z,7.00
2022-08-28T10:14:39.808Z,7.67
2022-08-28T10:15:43.337Z,7.73
2022-08-28T10:16:56.741Z,7.30
2022-08-28T10:18:07.314Z,7.43
2022-08-28T10:19:36.666Z,6.67
2022-08-28T10:20:53.448Z,7.03
2022-08-28T10:22:37.509Z,7.20
2022-08-28T10:23:42.130Z,6.73
2022-08-28T10:24:58.994Z,6.80
2022-08-28T10:26:25.158Z,6.90
2022-08-28T10:27:53.932Z,6.97
2022-08-28T10:29:07.825Z,8.50
2022-08-28T10:30:15.016Z,7.07
2022-08-28T10:31:31.550Z,7.87
2022-08-28T10:32:52.423Z,7.50
2022-08-28T10:33:59.905Z,8.10
2022-08-28T10:35:11.922Z,7.77
2022-08-28T10:36:34.032Z,7.43
2022-08-28T10:38:04.628Z,7.77
2022-08-28T10:39:39.769Z,8.20
2022-08-28T10:41:06.017Z,7.20
2022-08-28T10:42:07.704Z,6.63
2022-08-28T10:43:29.038Z,7.20
2022-08-28T10:44:36.651Z,7.17
2022-08-28T10:45:41.244Z,5.97
2022-08-28T10:46:49.060Z,5.70
2022-08-28T10:48:19.868Z,7.17
2022-08-28T10:49:28.297Z,6.00
2022-08-28T10:50:42.766Z,6.47
2022-08-28T10:51:51.754Z,5.50
2022-08-28T10:53:03.029Z,6.03
2022-08-28T10:54:15.476Z,7.00
2022-08-28T10:55:23.660Z,4.80
2022-08-28T10:56:35.868Z,6.23
2022-08-28T10:58:02.566Z,4.67
2022-08-28T10:59:04.177Z,5.73
2022-08-28T11:00:18.466Z,5.00
2022-08-28T11:01:33.145Z,4.70
2022-08-28T11:02:37.151Z,4.93
2022-08-28T11:03:46.699Z,6.07
2022-08-28T11:04:49.377Z,6.17
2022-08-28T11:06:01.735Z,5.60
2022-08-28T11:07:10.079Z,5.33
2022-08-28T11:08:23.429Z,4.57
2022-08-28T11:09:33.132Z,4.80
2022-08-28T11:10:37.637Z,5.47
2022-08-28T11:11:46.538Z,5.30
2022-08-28T11:12:51.741Z,4.60
2022-08-28T11:13:59.660Z,5.97
2022-08-28T11:15:36.380Z,5.60
2022-08-28T11:16:44.046Z,5.07
2022-08-28T11:17:45.700Z,5.10
2022-08-28T11:19:08.727Z,5.30
2022-08-28T11:20:24.904Z,5.00
2022-08-28T11:21:40.557Z,4.90
2022-08-28T11:23:10.467Z,5.50
2022-08-28T11:24:35.108Z,4.67
2022-08-28T11:26:02.842Z,5.10
2022-08-28T11:27:20.019Z,5.27
2022-08-28T11:28:24.428Z,5.20
2022-08-28T11:30:01.318Z,5.33
2022-08-28T11:31:05.972Z,5.63
2022-08-28T11:32:28.727Z,5.07
2022-08-28T11:33:35.474Z,4.63
2022-08-28T11:34:56.954Z,5.50
2022-08-28T11:35:58.721Z,5.30
2022-08-28T11:37:02.619Z,5.33
2022-08-28T11:38:04.486Z,4.53
2022-08-28T11:39:20.152Z,4.83
2022-08-28T11:40:31.674Z,5.00
2022-08-28T11:41:36.544Z,5.60
2022-08-28T11:42:38.162Z,5.30
2022-08-28T11:43:42.395Z,6.10
2022-08-28T11:44:45.918Z,4.77
2022-08-28T11:45:47.938Z,5.20
2022-08-28T11:46:51.961Z,5.07
2022-08-28T11:47:56.469Z,5.50
2022-08-28T11:49:01.187Z,5.30
2022-08-28T11:50:16.182Z,5.40
2022-08-28T11:51:17.645Z,4.77
2022-08-28T11:52:44.041Z,5.27
2022-08-28T11:54:12.756Z,4.87
2022-08-28T11:55:29.981Z,4.80
2022-08-28T11:56:41.121Z,5.43
2022-08-28T11:59:07.933Z,6.40
2022-08-28T12:00:44.869Z,5.60
2022-08-28T12:01:46.491Z,5.03
2022-08-28T12:02:52.419Z,5.00
2022-08-28T12:04:01.945Z,5.77
2022-08-28T12:05:31.381Z,5.30
2022-08-28T12:06:44.964Z,4.63
2022-08-28T12:07:49.596Z,5.03
2022-08-28T12:09:01.894Z,4.70
2022-08-28T12:10:24.330Z,4.13
2022-08-28T12:11:41.602Z,4.80
2022-08-28T12:12:46.138Z,4.40
2022-08-28T12:13:51.568Z,5.37
2022-08-28T12:14:55.893Z,4.40
2022-08-28T12:16:06.862Z,4.50
2022-08-28T12:17:31.221Z,4.57
2022-08-28T12:18:39.544Z,4.20
2022-08-28T12:20:31.071Z,4.93
2022-08-28T12:21:38.933Z,5.33
2022-08-28T12:22:53.194Z,4.10
2022-08-28T12:24:21.859Z,5.13
2022-08-28T12:25:32.149Z,5.10
2022-08-28T12:26:38.556Z,5.37
2022-08-28T12:27:41.105Z,4.67
2022-08-28T12:28:51.432Z,4.30
2022-08-28T12:29:55.325Z,3.90
2022-08-28T12:31:06.234Z,4.40
2022-08-28T12:32:22.721Z,4.83
2022-08-28T12:33:37.667Z,4.23
2022-08-28T12:34:39.375Z,5.50
2022-08-28T12:35:43.732Z,4.83
2022-08-28T12:36:48.977Z,4.90
2022-08-28T12:37:53.793Z,4.23
2022-08-28T12:39:00.380Z,5.53
2022-08-28T12:40:11.848Z,4.97
2022-08-28T12:41:17.120Z,4.53
2022-08-28T12:42:26.697Z,4.20
2022-08-28T12:43:46.570Z,4.70
2022-08-28T12:44:48.643Z,4.70
2022-08-28T12:46:19.787Z,5.20
2022-08-28T12:47:23.622Z,4.10
2022-08-28T12:48:47.382Z,5.10
2022-08-28T12:49:49.078Z,5.00
2022-08-28T12:51:04.582Z,4.43
2022-08-28T12:52:10.793Z,4.10
2022-08-28T12:53:18.433Z,4.07
2022-08-28T12:54:19.996Z,4.10
2022-08-28T12:55:24.605Z,4.60
2022-08-28T12:56:33.975Z,4.00
2022-08-28T12:57:35.515Z,4.63
2022-08-28T12:58:39.835Z,4.33
2022-08-28T12:59:44.232Z,4.50
2022-08-28T13:00:57.035Z,5.00
2022-08-28T13:02:10.354Z,4.93
2022-08-28T13:03:12.320Z,4.83
2022-08-28T13:04:32.664Z,5.03
2022-08-28T13:05:40.250Z,5.07
2022-08-28T13:06:41.869Z,4.43
2022-08-28T13:07:51.893Z,4.23
2022-08-28T13:08:59.365Z,5.10
2022-08-28T13:10:22.270Z,5.33
2022-08-28T13:11:23.815Z,5.70
2022-08-28T13:12:55.346Z,5.73
2022-08-28T13:13:55.556Z,4.80
2022-08-28T13:14:57.444Z,4.67
2022-08-28T13:16:00.843Z,5.33
2022-08-28T13:17:02.438Z,4.97
2022-08-28T13:18:04.478Z,4.23
2022-08-28T13:19:06.606Z,4.90
2022-08-28T13:20:08.757Z,5.73
2022-08-28T13:21:13.506Z,4.77
2022-08-28T13:22:38.547Z,5.17
2022-08-28T13:23:41.177Z,4.80
2022-08-28T13:24:45.829Z,5.00
2022-08-28T13:25:47.430Z,4.60
2022-08-28T13:27:07.363Z,5.60
2022-08-28T13:28:14.923Z,5.07
2022-08-28T13:29:22.947Z,4.80
2022-08-28T13:30:33.411Z,5.23
2022-08-28T13:31:39.045Z,4.93
2022-08-28T13:32:40.873Z,5.80
2022-08-28T13:33:42.467Z,5.13
2022-08-28T13:35:13.551Z,4.63
2022-08-28T13:36:24.777Z,4.27
2022-08-28T13:37:51.374Z,4.57
2022-08-28T13:38:52.963Z,4.53
2022-08-28T13:39:54.472Z,4.67
2022-08-28T13:41:02.130Z,4.63
2022-08-28T13:42:16.161Z,4.43
2022-08-28T13:43:18.213Z,5.40
2022-08-28T13:44:33.619Z,4.17
2022-08-28T13:45:43.109Z,3.90
2022-08-28T13:46:44.881Z,4.73
2022-08-28T13:47:46.399Z,4.60
2022-08-28T13:48:47.909Z,4.70
2022-08-28T13:49:49.515Z,3.90
2022-08-28T13:50:56.736Z,3.90
2022-08-28T13:52:00.489Z,4.03
2022-08-28T13:53:03.094Z,4.50
2022-08-28T13:54:04.679Z,4.53
2022-08-28T13:55:09.708Z,4.83
2022-08-28T13:56:12.399Z,4.20
2022-08-28T13:57:15.334Z,3.97
2022-08-28T13:58:17.536Z,4.50
2022-08-28T13:59:19.920Z,4.07
2022-08-28T14:00:21.635Z,4.47
2022-08-28T14:01:44.523Z,4.10
2022-08-28T14:03:04.934Z,3.77
2022-08-28T14:04:06.529Z,3.73
2022-08-28T14:05:08.307Z,4.40
2022-08-28T14:06:14.785Z,4.47
2022-08-28T14:07:16.888Z,4.33
2022-08-28T14:08:18.504Z,3.95
2022-08-28T14:09:20.606Z,4.00
2022-08-28T14:10:23.213Z,4.45
2022-08-28T14:11:26.296Z,3.35
2022-08-28T14:12:33.282Z,4.10
2022-08-28T14:13:36.370Z,4.05
2022-08-28T14:14:38.862Z,3.70
2022-08-28T14:15:40.482Z,4.13
2022-08-28T14:16:42.385Z,3.60
2022-08-28T14:17:44.853Z,4.13
2022-08-28T14:18:46.421Z,3.50
2022-08-28T14:19:48.861Z,3.80
2022-08-28T14:20:50.414Z,3.83
2022-08-28T14:21:51.931Z,3.53
2022-08-28T14:22:53.554Z,3.57
2022-08-28T14:23:55.178Z,3.80
2022-08-28T14:24:57.623Z,4.05